Time;durP1;ratioP1;P1;durP2;ratioP2;P2;SDS_P1;SDS_P2;PMS_P1;PMS_P2;Temp;Humidity;BMP_temperature;BMP_pressure;BME280_temperature;BME280_humidity;BME280_pressure;Samples;Min_cycle;Max_cycle;Signal;HPM_P1;HPM_P2
2020/12/13 00:01:35;;;;;;;13.05;6.68;;;8.70;99.90;;;;;;5032846;28;20044;-83
2020/12/13 00:04:01;;;;;;;11.38;6.65;;;8.70;99.90;;;;;;5022197;28;20041;-82
2020/12/13 00:06:30;;;;;;;11.93;6.78;;;8.70;99.90;;;;;;5021528;28;20609;-82
2020/12/13 00:08:56;;;;;;;11.35;6.25;;;8.70;99.90;;;;;;5026369;28;20610;-83
2020/12/13 00:11:22;;;;;;;10.23;6.20;;;10.00;99.90;;;;;;5016411;28;20471;-81
2020/12/13 00:13:48;;;;;;;9.90;6.47;;;8.70;99.90;;;;;;5020140;28;20048;-80
2020/12/13 00:16:14;;;;;;;10.55;6.07;;;8.80;99.90;;;;;;5035113;28;20034;-78
2020/12/13 00:18:42;;;;;;;10.15;5.88;;;8.80;99.90;;;;;;5008165;28;20558;-80
2020/12/13 00:21:10;;;;;;;9.30;5.88;;;8.80;99.90;;;;;;5019342;28;20676;-80
2020/12/13 00:23:36;;;;;;;9.85;6.32;;;8.70;99.90;;;;;;5029473;28;20037;-80
2020/12/13 00:26:08;;;;;;;11.38;5.82;;;8.70;99.90;;;;;;5022755;28;20038;-82
2020/12/13 00:28:38;;;;;;;9.27;5.70;;;8.70;99.90;;;;;;5033703;28;20491;-79
2020/12/13 00:31:11;;;;;;;9.40;5.55;;;8.70;99.90;;;;;;5028324;28;20526;-80
2020/12/13 00:33:37;;;;;;;9.05;6.00;;;8.90;99.90;;;;;;5022211;28;20256;-79
2020/12/13 00:36:04;;;;;;;9.70;5.75;;;8.60;99.90;;;;;;5025833;28;20052;-81
2020/12/13 00:38:30;;;;;;;8.32;5.35;;;8.70;99.90;;;;;;5028414;28;20052;-83
2020/12/13 00:40:56;;;;;;;7.82;5.53;;;8.70;99.90;;;;;;5032756;28;20037;-82
2020/12/13 00:43:21;;;;;;;8.02;5.72;;;8.70;99.90;;;;;;5031402;28;20132;-81
2020/12/13 00:45:47;;;;;;;10.43;6.70;;;8.90;99.90;;;;;;5023331;28;20042;-83
2020/12/13 00:48:14;;;;;;;12.15;6.07;;;8.60;99.90;;;;;;5024696;28;20054;-81
2020/12/13 00:50:40;;;;;;;12.65;6.22;;;8.70;99.90;;;;;;5025330;28;20037;-83
2020/12/13 00:53:07;;;;;;;10.82;6.50;;;8.60;99.90;;;;;;5024520;28;20161;-82
2020/12/13 00:55:33;;;;;;;8.60;5.93;;;8.60;99.90;;;;;;5021187;28;20053;-81
2020/12/13 00:57:59;;;;;;;9.82;5.68;;;8.70;99.90;;;;;;5025124;28;20042;-80
2020/12/13 01:00:25;;;;;;;10.70;6.15;;;8.60;99.90;;;;;;5021108;28;20143;-82
2020/12/13 01:02:57;;;;;;;9.60;6.07;;;8.60;99.90;;;;;;5013896;28;20046;-81
2020/12/13 01:05:24;;;;;;;10.25;6.38;;;8.60;99.90;;;;;;5032236;28;20048;-81
2020/12/13 01:07:51;;;;;;;12.00;7.15;;;8.60;99.90;;;;;;5021748;28;20034;-80
2020/12/13 01:10:19;;;;;;;10.95;6.07;;;8.60;99.90;;;;;;5019632;28;20105;-80
2020/12/13 01:12:45;;;;;;;9.15;5.68;;;8.60;99.90;;;;;;5028043;28;20038;-79
2020/12/13 01:15:11;;;;;;;10.35;6.35;;;8.60;99.90;;;;;;5025210;28;20109;-82
2020/12/13 01:17:36;;;;;;;9.80;6.22;;;8.60;99.90;;;;;;5021978;28;20041;-81
2020/12/13 01:20:03;;;;;;;8.90;5.82;;;8.60;99.90;;;;;;5015364;28;20053;-79
2020/12/13 01:22:29;;;;;;;10.68;6.07;;;8.50;99.90;;;;;;5029774;28;20041;-79
2020/12/13 01:24:55;;;;;;;11.05;6.60;;;8.60;99.90;;;;;;5020806;28;20388;-82
2020/12/13 01:27:21;;;;;;;11.10;6.63;;;8.60;99.90;;;;;;5022238;28;20034;-79
2020/12/13 01:29:47;;;;;;;11.02;6.40;;;8.80;99.90;;;;;;5027005;28;20052;-83
2020/12/13 01:32:13;;;;;;;7.32;5.10;;;8.60;99.90;;;;;;5014694;28;20095;-80
2020/12/13 01:34:39;;;;;;;15.80;8.48;;;8.60;99.90;;;;;;5023729;28;20038;-82
2020/12/13 01:37:04;;;;;;;8.88;5.57;;;8.60;99.90;;;;;;5037423;28;20355;-80
2020/12/13 01:39:30;;;;;;;12.68;7.60;;;8.70;99.90;;;;;;5020265;28;20037;-80
2020/12/13 01:42:00;;;;;;;9.38;5.80;;;8.60;99.90;;;;;;5012371;28;20025;-79
2020/12/13 01:44:37;;;;;;;12.73;6.97;;;8.70;99.90;;;;;;5017622;28;20484;-80
2020/12/13 01:47:05;;;;;;;9.95;6.18;;;8.60;99.90;;;;;;5012815;28;20038;-81
2020/12/13 01:49:43;;;;;;;10.98;5.82;;;8.70;99.90;;;;;;5021202;28;20072;-82
2020/12/13 01:55:05;;;;;;;8.88;5.85;;;8.60;99.90;;;;;;5024173;28;20091;-81
2020/12/13 01:57:35;;;;;;;10.65;5.90;;;8.60;99.90;;;;;;5030117;28;20045;-82
2020/12/13 02:00:12;;;;;;;11.50;5.90;;;8.60;99.90;;;;;;5024881;28;20034;-82
2020/12/13 02:03:01;;;;;;;9.52;6.00;;;8.50;99.90;;;;;;5022214;28;20486;-79
2020/12/13 02:05:27;;;;;;;13.18;6.45;;;8.70;99.90;;;;;;5042370;28;20097;-82
2020/12/13 02:07:56;;;;;;;13.65;6.82;;;8.50;99.90;;;;;;5023383;28;20385;-78
2020/12/13 02:10:22;;;;;;;11.30;6.05;;;8.60;99.90;;;;;;5021318;28;20365;-80
2020/12/13 02:12:48;;;;;;;10.85;6.82;;;8.60;99.90;;;;;;5022336;28;20048;-82
2020/12/13 02:15:14;;;;;;;12.65;6.70;;;8.60;99.90;;;;;;5025397;28;20116;-83
2020/12/13 02:17:41;;;;;;;10.20;6.13;;;9.50;99.90;;;;;;5026653;28;20048;-81
2020/12/13 02:20:14;;;;;;;9.80;6.00;;;8.70;99.90;;;;;;5045735;28;20072;-81
2020/12/13 02:22:48;;;;;;;11.82;6.93;;;8.60;99.90;;;;;;5026185;28;20060;-81
2020/12/13 02:25:18;;;;;;;10.88;6.75;;;8.60;99.90;;;;;;5025953;28;20030;-81
2020/12/13 02:27:44;;;;;;;10.87;6.90;;;8.50;99.90;;;;;;5023597;28;20034;-80
2020/12/13 02:30:10;;;;;;;13.20;6.80;;;8.50;99.90;;;;;;5022301;28;20124;-82
2020/12/13 02:32:36;;;;;;;11.27;6.90;;;8.50;99.90;;;;;;5020334;28;20099;-82
2020/12/13 02:35:04;;;;;;;10.20;6.25;;;10.60;99.90;;;;;;5022878;28;20046;-81
2020/12/13 02:37:30;;;;;;;11.57;6.15;;;8.50;99.90;;;;;;5021638;28;20029;-80
2020/12/13 02:39:56;;;;;;;9.52;6.25;;;8.50;99.90;;;;;;5030218;28;20061;-81
2020/12/13 02:42:22;;;;;;;9.60;6.13;;;8.60;99.90;;;;;;5022843;28;20049;-82
2020/12/13 02:44:48;;;;;;;9.63;6.25;;;8.50;99.90;;;;;;5024535;28;20063;-81
2020/12/13 02:47:14;;;;;;;10.93;6.35;;;8.50;99.90;;;;;;5027026;28;20036;-80
2020/12/13 02:49:41;;;;;;;10.75;6.32;;;9.40;99.90;;;;;;5024094;28;20026;-81
2020/12/13 02:52:10;;;;;;;11.68;7.13;;;8.40;99.90;;;;;;5021537;28;20033;-83
2020/12/13 02:54:37;;;;;;;12.82;6.85;;;8.50;99.90;;;;;;5020776;28;20467;-82
2020/12/13 02:57:03;;;;;;;10.90;6.90;;;8.50;99.90;;;;;;5014092;28;20153;-80
2020/12/13 02:59:30;;;;;;;11.25;6.22;;;8.50;99.90;;;;;;5022530;28;20038;-81
2020/12/13 03:01:56;;;;;;;11.25;7.53;;;8.50;99.90;;;;;;5015270;28;20040;-82
2020/12/13 03:04:21;;;;;;;10.20;6.53;;;8.50;99.90;;;;;;5017087;28;20474;-81
2020/12/13 03:06:47;;;;;;;12.93;7.20;;;8.60;99.90;;;;;;5024756;28;20403;-83
2020/12/13 03:09:13;;;;;;;10.93;7.13;;;8.50;99.90;;;;;;5017953;28;20057;-83
2020/12/13 03:11:39;;;;;;;12.15;8.05;;;8.50;99.90;;;;;;5016396;28;20661;-81
2020/12/13 03:14:05;;;;;;;12.25;8.38;;;8.50;99.90;;;;;;5014338;28;20038;-80
2020/12/13 03:16:30;;;;;;;14.93;8.77;;;8.50;99.90;;;;;;5019329;28;20030;-82
2020/12/13 03:18:56;;;;;;;14.45;8.77;;;8.40;99.90;;;;;;5020238;28;20121;-79
2020/12/13 03:21:22;;;;;;;12.02;8.20;;;8.40;99.90;;;;;;5016106;28;20048;-80
2020/12/13 03:23:47;;;;;;;13.50;8.40;;;8.40;99.90;;;;;;5018502;28;20454;-81
2020/12/13 03:26:13;;;;;;;16.25;8.82;;;8.40;99.90;;;;;;5024142;28;20120;-80
2020/12/13 03:28:38;;;;;;;13.48;7.97;;;8.40;99.90;;;;;;5023997;28;20053;-82
2020/12/13 03:31:04;;;;;;;13.70;8.32;;;8.30;99.90;;;;;;5013186;28;20058;-82
2020/12/13 03:33:30;;;;;;;13.18;8.73;;;8.30;99.90;;;;;;5017220;28;20102;-84
2020/12/13 03:35:56;;;;;;;13.88;7.45;;;8.30;99.90;;;;;;5032027;28;20065;-79
2020/12/13 03:38:22;;;;;;;14.48;8.48;;;8.30;99.90;;;;;;5018012;28;20050;-81
2020/12/13 03:40:48;;;;;;;14.70;8.70;;;8.30;99.90;;;;;;5021876;28;20117;-81
2020/12/13 03:43:14;;;;;;;10.65;7.32;;;8.30;99.90;;;;;;5019723;28;20038;-81
2020/12/13 03:45:39;;;;;;;12.27;7.43;;;8.30;99.90;;;;;;5019390;28;20045;-82
2020/12/13 03:48:05;;;;;;;16.80;10.32;;;9.20;99.90;;;;;;5016917;28;20061;-82
2020/12/13 03:50:40;;;;;;;12.25;8.43;;;8.70;99.90;;;;;;5015851;28;20438;-83
2020/12/13 03:53:11;;;;;;;13.68;8.18;;;8.20;99.90;;;;;;5015143;28;20033;-82
2020/12/13 03:55:37;;;;;;;10.32;6.78;;;8.20;99.90;;;;;;5012979;28;20029;-82
2020/12/13 03:58:03;;;;;;;11.80;6.93;;;8.30;99.90;;;;;;5017670;28;20073;-81
2020/12/13 04:00:29;;;;;;;11.60;6.88;;;8.30;99.90;;;;;;5027126;28;20049;-82
2020/12/13 04:02:56;;;;;;;11.30;7.18;;;9.00;99.90;;;;;;5022714;28;20180;-84
2020/12/13 04:05:23;;;;;;;14.18;7.35;;;8.20;99.90;;;;;;5020694;28;20056;-82
2020/12/13 04:07:50;;;;;;;10.10;6.70;;;8.30;99.90;;;;;;5033610;28;20045;-86
2020/12/13 04:10:16;;;;;;;9.93;6.22;;;8.30;99.90;;;;;;5037239;28;20389;-84
2020/12/13 04:12:42;;;;;;;10.75;6.75;;;8.30;99.90;;;;;;5029154;28;20116;-82
2020/12/13 04:15:08;;;;;;;12.82;6.70;;;8.30;99.90;;;;;;5020335;28;20042;-80
2020/12/13 04:17:34;;;;;;;16.50;7.10;;;8.30;99.90;;;;;;5024519;28;20499;-82
2020/12/13 04:20:00;;;;;;;14.07;7.25;;;8.20;99.90;;;;;;5021477;28;20042;-82
2020/12/13 04:22:26;;;;;;;11.55;6.57;;;8.20;99.90;;;;;;5024625;28;20402;-80
2020/12/13 04:24:52;;;;;;;12.32;6.82;;;8.20;99.90;;;;;;5024958;28;20162;-80
2020/12/13 04:27:18;;;;;;;11.18;7.30;;;8.30;99.90;;;;;;5021115;28;20038;-81
2020/12/13 04:29:44;;;;;;;10.73;6.90;;;8.20;99.90;;;;;;5021407;28;20033;-80
2020/12/13 04:32:10;;;;;;;11.57;7.00;;;9.00;99.90;;;;;;5019001;28;20110;-80
2020/12/13 04:34:36;;;;;;;11.73;6.80;;;8.20;99.90;;;;;;5022833;28;20013;-80
2020/12/13 04:37:02;;;;;;;12.77;6.45;;;8.20;99.90;;;;;;5019720;28;20490;-83
2020/12/13 04:39:28;;;;;;;10.95;6.63;;;8.20;99.90;;;;;;5022108;28;20057;-82
2020/12/13 04:41:54;;;;;;;8.45;6.13;;;8.20;99.90;;;;;;5020586;28;20034;-82
2020/12/13 04:44:19;;;;;;;11.18;6.25;;;8.20;99.90;;;;;;5023525;28;20121;-82
2020/12/13 04:46:46;;;;;;;9.38;5.78;;;8.30;99.90;;;;;;5028020;28;20056;-81
2020/12/13 04:49:13;;;;;;;11.23;5.90;;;8.20;99.90;;;;;;5024792;28;20455;-81
2020/12/13 04:51:42;;;;;;;12.98;6.07;;;8.20;99.90;;;;;;5022317;28;20136;-83
2020/12/13 04:54:08;;;;;;;12.60;5.78;;;8.20;99.90;;;;;;5024416;28;20034;-81
2020/12/13 04:56:35;;;;;;;10.63;5.75;;;8.20;99.90;;;;;;5026178;28;20073;-80
2020/12/13 04:59:03;;;;;;;8.10;5.45;;;8.20;99.90;;;;;;5022572;28;20049;-80
2020/12/13 05:01:29;;;;;;;8.57;4.85;;;8.20;99.90;;;;;;5020977;28;20132;-81
2020/12/13 05:03:55;;;;;;;11.80;5.60;;;8.30;99.90;;;;;;5023617;28;20072;-80
2020/12/13 05:06:21;;;;;;;9.95;5.50;;;8.20;99.90;;;;;;5027479;28;20041;-81
2020/12/13 05:08:47;;;;;;;12.32;6.10;;;8.20;99.90;;;;;;5019574;28;20025;-79
2020/12/13 05:11:14;;;;;;;16.13;6.20;;;9.60;99.90;;;;;;5026434;28;20032;-84
2020/12/13 05:13:41;;;;;;;11.25;6.00;;;8.10;99.90;;;;;;5018913;28;20034;-80
2020/12/13 05:16:09;;;;;;;14.68;6.25;;;11.40;99.90;;;;;;5022737;28;20038;-81
2020/12/13 05:18:38;;;;;;;14.15;6.70;;;8.10;99.90;;;;;;5026849;28;20112;-80
2020/12/13 05:21:05;;;;;;;12.93;6.20;;;8.10;99.90;;;;;;5025935;28;20041;-82
2020/12/13 05:23:32;;;;;;;11.40;6.05;;;8.20;99.90;;;;;;5026554;28;20037;-83
2020/12/13 05:25:58;;;;;;;9.57;6.25;;;;;;;;;;5026909;28;20037;-81
2020/12/13 05:28:25;;;;;;;9.35;5.90;;;8.10;99.90;;;;;;5028276;28;20060;-82
2020/12/13 05:30:53;;;;;;;12.75;6.07;;;8.10;99.90;;;;;;5021016;28;20034;-81
2020/12/13 05:35:46;;;;;;;10.65;5.50;;;8.10;99.90;;;;;;5019449;28;20093;-80
2020/12/13 05:38:14;;;;;;;12.52;5.75;;;8.80;99.90;;;;;;5021785;28;20404;-81
2020/12/13 05:40:41;;;;;;;8.82;5.30;;;8.10;99.90;;;;;;5025139;28;20105;-81
2020/12/13 05:43:22;;;;;;;9.55;4.93;;;8.10;99.90;;;;;;5024131;28;20041;-84
2020/12/13 05:48:39;;;;;;;9.93;4.95;;;8.00;99.90;;;;;;5020049;28;20514;-82
2020/12/13 05:53:37;;;;;;;7.45;4.22;;;8.10;99.90;;;;;;5023617;28;20510;-82
2020/12/13 05:56:06;;;;;;;6.88;4.55;;;8.10;99.90;;;;;;5022124;28;20049;-80
2020/12/13 05:58:31;;;;;;;9.48;5.15;;;8.00;99.90;;;;;;5017696;28;20062;-79
2020/12/13 06:00:58;;;;;;;9.30;4.57;;;8.10;99.90;;;;;;5021747;28;20043;-82
2020/12/13 06:03:33;;;;;;;8.40;4.07;;;8.00;99.90;;;;;;5004097;28;20653;-82
2020/12/13 06:06:22;;;;;;;8.60;3.90;;;8.70;99.90;;;;;;5020798;28;20056;-80
2020/12/13 06:08:59;;;;;;;8.05;4.05;;;8.00;99.90;;;;;;5017273;28;20038;-81
2020/12/13 06:11:32;;;;;;;6.50;4.18;;;8.10;99.90;;;;;;5037964;28;20041;-82
2020/12/13 06:14:05;;;;;;;7.22;3.83;;;8.00;99.90;;;;;;5023815;28;21021;-81
2020/12/13 06:16:33;;;;;;;8.50;4.80;;;8.00;99.90;;;;;;5019781;28;20048;-83
2020/12/13 06:18:58;;;;;;;10.48;4.07;;;8.00;99.90;;;;;;5026622;28;20048;-84
2020/12/13 06:21:24;;;;;;;9.45;4.65;;;8.00;99.90;;;;;;5024591;28;20058;-84
2020/12/13 06:23:53;;;;;;;9.23;4.45;;;8.00;99.90;;;;;;5009800;28;20033;-85
2020/12/13 06:26:19;;;;;;;10.15;4.40;;;7.90;99.90;;;;;;5022075;28;20042;-81
2020/12/13 06:28:45;;;;;;;6.60;4.43;;;7.90;99.90;;;;;;5020143;28;20549;-82
2020/12/13 06:31:20;;;;;;;10.65;4.88;;;7.90;99.90;;;;;;5019121;28;20034;-82
2020/12/13 06:33:47;;;;;;;10.45;4.38;;;7.90;99.90;;;;;;5016589;28;20034;-82
2020/12/13 06:36:13;;;;;;;9.70;4.70;;;9.50;99.90;;;;;;5022586;28;20041;-83
2020/12/13 06:38:40;;;;;;;9.30;4.55;;;7.90;99.90;;;;;;5019056;28;20555;-83
2020/12/13 06:41:13;;;;;;;9.57;4.63;;;7.90;99.90;;;;;;5020594;28;20040;-81
2020/12/13 06:43:56;;;;;;;9.55;4.80;;;7.80;99.90;;;;;;5019110;28;20034;-79
2020/12/13 06:46:26;;;;;;;6.95;4.28;;;7.90;99.90;;;;;;5022473;28;20042;-83
2020/12/13 06:48:52;;;;;;;9.27;4.60;;;7.90;99.90;;;;;;5024449;28;20033;-84
2020/12/13 06:51:34;;;;;;;9.70;4.75;;;7.90;99.90;;;;;;5016595;28;20033;-81
2020/12/13 06:54:06;;;;;;;7.50;4.32;;;8.00;99.90;;;;;;5020023;28;20037;-79
2020/12/13 06:56:32;;;;;;;11.82;5.22;;;8.00;99.90;;;;;;5018920;28;20443;-81
2020/12/13 06:59:00;;;;;;;10.63;4.95;;;8.00;99.90;;;;;;5020093;28;20034;-81
2020/12/13 07:01:35;;;;;;;12.02;5.07;;;7.90;99.90;;;;;;5027268;28;20093;-79
2020/12/13 07:07:18;;;;;;;10.15;4.57;;;8.00;99.90;;;;;;5013717;28;20029;-81
2020/12/13 07:09:48;;;;;;;10.90;4.88;;;7.90;99.90;;;;;;5022225;28;20502;-80
2020/12/13 07:12:14;;;;;;;9.55;5.28;;;7.90;99.90;;;;;;5020144;28;20042;-82
2020/12/13 07:14:42;;;;;;;14.80;5.80;;;7.90;99.90;;;;;;5012943;28;20539;-80
2020/12/13 07:17:15;;;;;;;13.73;5.38;;;8.20;99.90;;;;;;5016857;28;20030;-81
2020/12/13 07:19:41;;;;;;;10.00;5.53;;;7.90;99.90;;;;;;5016859;28;20368;-80
2020/12/13 07:22:09;;;;;;;14.13;6.05;;;7.90;99.90;;;;;;5015248;28;20038;-81
2020/12/13 07:24:35;;;;;;;12.43;5.72;;;7.80;99.90;;;;;;5023813;28;20045;-82
2020/12/13 07:27:02;;;;;;;11.90;6.35;;;7.80;99.90;;;;;;5020962;28;20038;-81
2020/12/13 07:29:31;;;;;;;14.45;5.72;;;7.80;99.90;;;;;;5011129;28;20096;-80
2020/12/13 07:31:56;;;;;;;12.13;6.25;;;7.80;99.90;;;;;;5026169;28;20053;-81
2020/12/13 07:34:23;;;;;;;15.15;6.00;;;7.80;99.90;;;;;;5022114;28;20061;-78
2020/12/13 07:36:49;;;;;;;11.82;6.65;;;7.80;99.90;;;;;;5009818;28;20049;-83
2020/12/13 07:39:15;;;;;;;13.63;6.68;;;7.80;99.90;;;;;;5017098;28;20041;-81
2020/12/13 07:41:41;;;;;;;15.02;5.78;;;7.80;99.90;;;;;;5023623;28;20063;-81
2020/12/13 07:44:12;;;;;;;14.20;6.07;;;7.80;99.90;;;;;;5020288;28;20423;-82
2020/12/13 07:46:41;;;;;;;14.80;5.97;;;7.80;99.90;;;;;;5019619;28;20045;-79
2020/12/13 07:49:15;;;;;;;12.85;5.65;;;7.90;99.90;;;;;;5017947;28;20534;-81
2020/12/13 07:51:43;;;;;;;12.95;5.35;;;7.90;99.90;;;;;;5017181;28;20041;-81
2020/12/13 07:54:20;;;;;;;12.57;5.75;;;7.90;99.90;;;;;;5021883;28;20042;-84
2020/12/13 07:56:50;;;;;;;12.60;5.47;;;7.90;99.90;;;;;;5017860;28;20037;-83
2020/12/13 07:59:18;;;;;;;12.85;4.97;;;7.90;99.90;;;;;;5020468;28;20052;-83
2020/12/13 08:01:46;;;;;;;10.75;5.40;;;8.00;99.90;;;;;;5016267;28;20037;-82
2020/12/13 08:04:13;;;;;;;12.32;5.68;;;8.10;99.90;;;;;;5024914;28;20381;-86
2020/12/13 08:06:38;;;;;;;15.95;5.85;;;8.10;99.90;;;;;;5017735;28;20037;-84
2020/12/13 08:09:13;;;;;;;14.88;6.22;;;8.10;99.90;;;;;;5015727;28;20140;-86
2020/12/13 08:11:40;;;;;;;11.88;6.32;;;8.10;99.90;;;;;;5023072;28;20050;-83
2020/12/13 08:14:07;;;;;;;17.70;6.40;;;9.20;99.90;;;;;;5017262;28;20037;-85
2020/12/13 08:16:35;;;;;;;19.95;6.55;;;8.00;99.90;;;;;;5020006;28;20034;-80
2020/12/13 08:19:16;;;;;;;17.70;5.65;;;8.00;99.90;;;;;;5019184;28;20034;-82
2020/12/13 08:21:50;;;;;;;12.50;6.35;;;8.00;99.90;;;;;;5026088;28;20026;-80
2020/12/13 08:24:17;;;;;;;15.15;6.53;;;8.00;99.90;;;;;;5019945;28;20506;-84
2020/12/13 08:26:45;;;;;;;18.23;6.53;;;7.90;99.90;;;;;;5021733;28;20034;-82
2020/12/13 08:29:11;;;;;;;13.45;6.32;;;7.90;99.90;;;;;;5019602;28;20084;-79
2020/12/13 08:31:38;;;;;;;16.25;6.82;;;8.00;99.90;;;;;;5024395;28;20136;-81
2020/12/13 08:34:05;;;;;;;15.35;7.15;;;7.80;99.90;;;;;;5019117;28;20026;-81
2020/12/13 08:36:32;;;;;;;15.50;6.70;;;7.80;99.90;;;;;;5017111;28;20046;-82
2020/12/13 08:39:12;;;;;;;11.98;6.15;;;7.80;99.90;;;;;;5014832;28;20046;-83
2020/12/13 08:41:47;;;;;;;15.45;6.22;;;7.90;99.90;;;;;;5018766;28;20042;-79
2020/12/13 08:44:45;;;;;;;19.38;6.63;;;8.00;99.90;;;;;;5031161;28;20037;-80
2020/12/13 08:47:11;;;;;;;14.65;6.20;;;8.10;99.90;;;;;;5020450;28;20065;-83
2020/12/13 08:49:41;;;;;;;17.92;6.50;;;8.00;99.90;;;;;;5022307;28;20052;-82
2020/12/13 08:52:22;;;;;;;15.50;6.22;;;7.90;99.90;;;;;;5019383;28;20033;-83
2020/12/13 08:54:50;;;;;;;17.80;6.82;;;8.10;99.90;;;;;;5023582;28;20095;-82
2020/12/13 08:57:48;;;;;;;16.00;6.30;;;8.80;99.90;;;;;;5014564;28;20044;-83
2020/12/13 09:00:18;;;;;;;13.27;5.32;;;7.80;99.90;;;;;;5003275;28;20045;-81
2020/12/13 09:02:58;;;;;;;15.90;6.20;;;7.90;99.90;;;;;;5026340;28;20034;-84
2020/12/13 09:05:32;;;;;;;11.38;5.50;;;7.90;99.90;;;;;;5024502;28;20034;-81
2020/12/13 09:07:59;;;;;;;11.65;5.88;;;7.90;99.90;;;;;;5023013;28;20030;-85
2020/12/13 09:10:27;;;;;;;14.77;6.40;;;7.90;99.90;;;;;;5025465;28;20053;-83
2020/12/13 09:12:53;;;;;;;11.48;6.00;;;8.00;99.90;;;;;;5021127;28;20507;-82
2020/12/13 09:15:23;;;;;;;19.02;6.30;;;8.00;99.90;;;;;;5017217;28;20073;-82
2020/12/13 09:18:03;;;;;;;12.10;5.68;;;8.00;99.90;;;;;;5026785;28;20044;-82
2020/12/13 09:20:31;;;;;;;15.27;5.88;;;8.00;99.90;;;;;;5021131;28;20122;-82
2020/12/13 09:23:12;;;;;;;12.43;5.85;;;8.20;99.90;;;;;;5019719;28;20045;-83
2020/12/13 09:25:46;;;;;;;15.77;6.03;;;8.40;99.90;;;;;;5027902;28;20049;-83
2020/12/13 09:28:13;;;;;;;13.43;6.25;;;8.30;99.90;;;;;;5030985;28;20487;-80
2020/12/13 09:30:41;;;;;;;16.10;6.72;;;8.30;99.90;;;;;;5024679;28;20124;-81
2020/12/13 09:33:08;;;;;;;13.50;7.00;;;8.30;99.90;;;;;;5029137;28;20448;-83
2020/12/13 09:35:34;;;;;;;13.18;5.93;;;8.30;99.90;;;;;;5030246;28;20052;-82
2020/12/13 09:38:01;;;;;;;14.98;6.50;;;8.10;99.90;;;;;;5026386;28;20038;-82
2020/12/13 09:40:27;;;;;;;15.10;6.97;;;8.10;99.90;;;;;;5025415;28;20180;-85
2020/12/13 09:42:56;;;;;;;14.68;6.30;;;8.10;99.90;;;;;;5023746;28;20041;-84
2020/12/13 09:45:23;;;;;;;14.38;5.80;;;8.10;99.90;;;;;;5018023;28;20076;-85
2020/12/13 09:47:48;;;;;;;13.73;6.15;;;8.20;99.90;;;;;;5025581;28;20036;-83
2020/12/13 09:50:17;;;;;;;17.58;5.88;;;8.20;99.90;;;;;;5022640;28;20086;-84
2020/12/13 09:52:42;;;;;;;13.48;6.45;;;8.20;99.90;;;;;;5032945;28;20049;-86
2020/12/13 09:55:11;;;;;;;14.60;6.90;;;8.20;99.90;;;;;;5029954;28;20041;-83
2020/12/13 09:57:37;;;;;;;16.77;6.43;;;8.30;99.90;;;;;;5027038;28;20038;-80
2020/12/13 10:00:04;;;;;;;14.57;6.10;;;8.40;99.90;;;;;;5027421;28;20052;-81
2020/12/13 10:02:30;;;;;;;16.77;6.80;;;8.30;99.90;;;;;;5031487;28;20542;-82
2020/12/13 10:04:56;;;;;;;12.85;6.00;;;8.40;99.90;;;;;;5017642;28;20045;-81
2020/12/13 10:07:32;;;;;;;15.88;5.88;;;8.40;99.90;;;;;;5018271;28;20054;-82
2020/12/13 10:09:58;;;;;;;12.88;5.28;;;8.40;99.90;;;;;;5025314;28;20033;-79
2020/12/13 10:12:24;;;;;;;11.82;5.90;;;8.50;99.50;;;;;;5016165;28;20477;-85
2020/12/13 10:14:49;;;;;;;15.50;5.40;;;8.30;99.90;;;;;;5028829;28;20026;-81
2020/12/13 10:17:15;;;;;;;14.50;5.60;;;8.30;99.90;;;;;;5023245;28;20030;-82
2020/12/13 10:19:41;;;;;;;14.98;5.43;;;8.20;99.90;;;;;;5023140;28;20029;-83
2020/12/13 10:22:07;;;;;;;14.55;5.70;;;8.10;99.90;;;;;;5019057;28;20033;-82
2020/12/13 10:24:33;;;;;;;11.25;6.03;;;8.10;99.90;;;;;;5020954;28;20033;-84
2020/12/13 10:26:59;;;;;;;13.60;6.05;;;8.10;99.90;;;;;;5020647;28;20048;-86
2020/12/13 10:29:25;;;;;;;15.68;6.70;;;8.20;99.90;;;;;;5021805;28;20105;-83
2020/12/13 10:31:51;;;;;;;18.17;6.75;;;8.40;99.90;;;;;;5027040;28;20120;-81
2020/12/13 10:34:17;;;;;;;18.75;7.47;;;8.00;99.90;;;;;;5021989;28;20041;-82
2020/12/13 10:36:44;;;;;;;10.73;5.28;;;8.00;99.90;;;;;;5022648;28;20125;-82
2020/12/13 10:39:11;;;;;;;10.77;5.20;;;8.10;99.90;;;;;;5019694;28;20041;-80
2020/12/13 10:41:37;;;;;;;11.60;4.85;;;8.00;99.90;;;;;;5027018;28;20447;-82
2020/12/13 10:44:04;;;;;;;18.92;7.22;;;8.10;99.90;;;;;;5030186;28;20029;-84
2020/12/13 10:46:30;;;;;;;13.82;4.78;;;8.20;99.90;;;;;;5033767;28;20045;-84
2020/12/13 10:48:56;;;;;;;13.93;5.57;;;8.40;99.80;;;;;;5028092;28;20117;-81
2020/12/13 10:51:22;;;;;;;10.70;5.70;;;8.00;99.90;;;;;;5023256;28;20038;-83
2020/12/13 10:53:48;;;;;;;13.07;6.60;;;8.00;99.80;;;;;;5032771;28;20787;-81
2020/12/13 10:56:15;;;;;;;15.55;6.97;;;8.00;99.90;;;;;;5022216;28;20049;-83
2020/12/13 10:58:44;;;;;;;10.98;5.22;;;8.00;99.90;;;;;;5022461;28;20042;-83
2020/12/13 11:01:11;;;;;;;13.82;4.90;;;8.20;99.90;;;;;;5026900;28;20038;-80
2020/12/13 11:03:37;;;;;;;10.27;4.25;;;8.00;99.70;;;;;;5015588;28;20423;-81
2020/12/13 11:06:03;;;;;;;14.93;5.35;;;8.50;99.90;;;;;;5018217;28;20129;-80
2020/12/13 11:08:29;;;;;;;11.70;4.60;;;8.00;98.80;;;;;;5005652;28;20047;-79
2020/12/13 11:10:54;;;;;;;15.60;6.03;;;8.00;99.50;;;;;;5025369;28;20037;-84
2020/12/13 11:13:21;;;;;;;18.85;4.70;;;8.00;99.10;;;;;;5020129;28;20053;-84
2020/12/13 11:15:47;;;;;;;14.80;4.80;;;8.10;99.50;;;;;;5014318;28;20037;-82
2020/12/13 11:18:13;;;;;;;14.68;4.60;;;8.00;99.60;;;;;;5016927;28;20034;-81
2020/12/13 11:20:39;;;;;;;15.50;4.88;;;8.10;99.20;;;;;;5015849;28;20059;-81
2020/12/13 11:23:05;;;;;;;12.18;4.97;;;8.10;98.90;;;;;;5017077;28;20038;-83
2020/12/13 11:25:31;;;;;;;11.73;4.60;;;8.20;99.30;;;;;;5019757;28;20041;-80
2020/12/13 11:27:58;;;;;;;13.85;4.82;;;8.20;98.70;;;;;;5018906;28;20439;-82
2020/12/13 11:30:24;;;;;;;10.63;4.55;;;8.10;99.10;;;;;;5031987;28;20037;-81
2020/12/13 11:32:50;;;;;;;13.77;5.80;;;8.00;99.20;;;;;;5025639;28;20066;-83
2020/12/13 11:35:17;;;;;;;13.93;5.18;;;8.00;99.50;;;;;;5020268;28;20161;-83
2020/12/13 11:37:43;;;;;;;14.30;5.15;;;7.90;99.90;;;;;;5019713;28;20407;-82
2020/12/13 11:40:09;;;;;;;12.65;4.95;;;7.90;99.90;;;;;;5014914;28;20409;-81
2020/12/13 11:42:36;;;;;;;12.55;4.53;;;7.90;99.90;;;;;;5013501;28;20482;-83
2020/12/13 11:45:04;;;;;;;12.23;4.90;;;7.90;99.80;;;;;;5025440;28;20055;-81
2020/12/13 11:47:30;;;;;;;12.48;6.30;;;8.00;99.90;;;;;;5006013;28;20042;-85
2020/12/13 11:49:55;;;;;;;11.45;5.20;;;7.90;99.70;;;;;;5024303;28;20119;-84
2020/12/13 11:52:21;;;;;;;12.70;5.70;;;7.70;99.60;;;;;;5018098;28;20046;-82
2020/12/13 11:54:47;;;;;;;12.25;4.95;;;7.90;99.60;;;;;;5012499;28;20034;-85
2020/12/13 11:57:12;;;;;;;11.63;4.57;;;7.80;99.60;;;;;;5013460;28;20041;-80
2020/12/13 11:59:38;;;;;;;9.63;4.47;;;7.80;99.90;;;;;;5016499;28;20044;-85
2020/12/13 12:02:04;;;;;;;9.77;4.68;;;7.90;99.20;;;;;;5018453;28;20046;-86
2020/12/13 12:04:30;;;;;;;10.88;4.97;;;8.00;99.50;;;;;;5022991;28;20037;-82
2020/12/13 12:06:56;;;;;;;9.90;4.65;;;7.90;99.70;;;;;;5020783;28;20097;-81
2020/12/13 12:09:22;;;;;;;8.27;4.15;;;7.80;99.90;;;;;;5024112;28;20073;-84
2020/12/13 12:11:48;;;;;;;9.07;4.50;;;7.70;99.90;;;;;;5036783;28;20030;-83
2020/12/13 12:14:14;;;;;;;9.75;4.40;;;7.60;99.80;;;;;;5022197;28;20057;-80
2020/12/13 12:16:42;;;;;;;16.88;9.30;;;7.40;99.90;;;;;;5021227;28;20049;-81
2020/12/13 12:19:08;;;;;;;8.98;5.05;;;7.30;99.90;;;;;;5019369;28;20046;-85
2020/12/13 12:21:35;;;;;;;11.48;5.93;;;7.40;99.90;;;;;;5029671;28;20526;-84
2020/12/13 12:24:03;;;;;;;8.70;4.90;;;7.30;99.90;;;;;;5022331;28;20106;-83
2020/12/13 12:26:35;;;;;;;12.95;5.95;;;7.20;99.90;;;;;;5015139;28;20053;-81
2020/12/13 12:29:01;;;;;;;12.43;6.28;;;7.20;99.90;;;;;;5020320;28;20033;-79
2020/12/13 12:31:28;;;;;;;14.13;5.82;;;7.20;99.90;;;;;;5022032;28;20037;-82
2020/12/13 12:33:54;;;;;;;10.63;5.20;;;7.30;99.80;;;;;;5020765;28;20045;-83
2020/12/13 12:36:26;;;;;;;11.90;5.18;;;7.30;99.90;;;;;;5015045;28;20030;-84
2020/12/13 12:38:53;;;;;;;11.18;4.97;;;7.30;99.70;;;;;;5028810;28;20044;-83
2020/12/13 12:41:20;;;;;;;8.48;5.28;;;7.10;99.10;;;;;;5028744;28;20108;-81
2020/12/13 12:43:47;;;;;;;10.48;4.47;;;7.10;99.90;;;;;;5024745;28;20045;-81
2020/12/13 12:46:14;;;;;;;8.23;4.60;;;7.20;99.60;;;;;;5025969;28;20045;-82
2020/12/13 12:48:40;;;;;;;9.95;4.50;;;7.10;99.80;;;;;;5021092;28;20061;-82
2020/12/13 12:51:09;;;;;;;9.65;4.53;;;7.10;99.30;;;;;;5028545;28;20025;-82
2020/12/13 12:53:35;;;;;;;6.10;3.53;;;7.10;99.50;;;;;;5023762;28;20029;-86
2020/12/13 12:56:04;;;;;;;9.95;3.38;;;7.20;99.60;;;;;;5035180;28;20056;-84
2020/12/13 12:58:37;;;;;;;9.63;3.22;;;9.10;99.70;;;;;;5021479;28;20069;-82
2020/12/13 13:01:05;;;;;;;8.05;3.20;;;7.30;99.20;;;;;;5027215;28;20057;-81
2020/12/13 13:03:32;;;;;;;8.07;3.88;;;7.40;98.40;;;;;;5018653;28;20055;-81
2020/12/13 13:06:04;;;;;;;8.38;3.45;;;7.40;98.50;;;;;;5014519;28;20038;-80
2020/12/13 13:08:40;;;;;;;8.52;3.10;;;8.00;98.90;;;;;;5022622;28;20082;-80